Time;durP1;ratioP1;P1;durP2;ratioP2;P2;SDS_P1;SDS_P2;PMS_P1;PMS_P2;Temp;Humidity;BMP_temperature;BMP_pressure;BME280_temperature;BME280_humidity;BME280_pressure;Samples;Min_cycle;Max_cycle;Signal;HPM_P1;HPM_P2
2023/12/23 00:01:37;;;;;;;24.20;3.65;;;5.10;99.90;;;;;;5084601;28;20047;-74
2023/12/23 00:04:03;;;;;;;17.27;3.40;;;5.10;99.90;;;;;;5070176;28;20059;-74
2023/12/23 00:06:29;;;;;;;13.85;3.53;;;5.10;99.90;;;;;;5072842;28;20074;-74
2023/12/23 00:08:55;;;;;;;18.17;3.85;;;5.10;99.90;;;;;;5089594;28;20068;-74
2023/12/23 00:11:20;;;;;;;12.48;3.63;;;5.20;99.90;;;;;;5058039;28;20056;-74
2023/12/23 00:13:46;;;;;;;17.70;3.60;;;5.20;99.90;;;;;;5070712;28;20046;-74
2023/12/23 00:16:12;;;;;;;19.70;3.83;;;5.20;99.90;;;;;;5078111;28;20043;-74
2023/12/23 00:18:37;;;;;;;21.15;3.40;;;5.20;99.90;;;;;;5079176;28;20075;-74
2023/12/23 00:21:06;;;;;;;17.80;3.15;;;5.20;99.90;;;;;;5075415;28;20078;-74
2023/12/23 00:23:32;;;;;;;19.42;4.25;;;5.30;99.90;;;;;;5078339;28;20139;-74
2023/12/23 00:25:58;;;;;;;23.58;3.63;;;5.30;99.90;;;;;;5057615;28;20497;-73
2023/12/23 00:28:24;;;;;;;22.20;4.10;;;5.30;99.90;;;;;;5079487;28;20054;-74
2023/12/23 00:30:50;;;;;;;18.58;3.38;;;5.30;99.90;;;;;;5078162;28;20047;-74
2023/12/23 00:33:16;;;;;;;23.85;4.30;;;5.40;99.90;;;;;;5073538;28;20040;-74
2023/12/23 00:35:42;;;;;;;20.52;3.78;;;5.30;99.90;;;;;;5073508;28;20039;-74
2023/12/23 00:38:08;;;;;;;18.95;3.20;;;5.30;99.90;;;;;;5075492;28;20565;-74
2023/12/23 00:40:34;;;;;;;19.42;3.75;;;5.40;99.90;;;;;;5083161;28;20123;-74
2023/12/23 00:43:00;;;;;;;16.83;3.35;;;5.40;99.90;;;;;;5075183;28;20052;-74
2023/12/23 00:45:28;;;;;;;17.02;3.50;;;5.50;99.90;;;;;;5071605;28;20059;-74
2023/12/23 00:47:54;;;;;;;16.33;3.70;;;5.40;99.90;;;;;;5061826;28;20079;-74
2023/12/23 00:50:20;;;;;;;19.05;3.67;;;5.50;99.90;;;;;;5083997;28;20075;-74
2023/12/23 00:52:46;;;;;;;18.55;3.58;;;5.50;99.90;;;;;;5074894;28;20151;-74
2023/12/23 00:55:15;;;;;;;17.05;3.22;;;5.50;99.90;;;;;;5054828;28;20048;-74
2023/12/23 00:57:42;;;;;;;17.60;3.30;;;5.50;99.90;;;;;;5074423;28;20040;-74
2023/12/23 01:00:08;;;;;;;22.05;3.92;;;5.50;99.90;;;;;;5068426;28;20047;-74
2023/12/23 01:02:36;;;;;;;24.13;4.28;;;5.60;99.90;;;;;;5051638;28;20043;-74
2023/12/23 01:05:02;;;;;;;16.05;3.17;;;5.60;99.90;;;;;;5067590;28;20043;-74
2023/12/23 01:07:28;;;;;;;17.02;4.18;;;5.60;99.90;;;;;;5076049;27;20402;-74
2023/12/23 01:09:54;;;;;;;17.30;2.80;;;5.70;99.90;;;;;;5083380;28;20047;-74
2023/12/23 01:12:19;;;;;;;17.40;3.53;;;5.70;99.90;;;;;;5060786;28;20593;-74
2023/12/23 01:14:45;;;;;;;21.10;3.70;;;5.70;99.90;;;;;;5063070;28;20083;-74
2023/12/23 01:17:11;;;;;;;15.55;3.63;;;5.70;99.90;;;;;;5062074;28;20054;-74
2023/12/23 01:19:37;;;;;;;16.13;3.15;;;5.80;99.90;;;;;;5085756;27;20119;-74
2023/12/23 01:22:02;;;;;;;19.33;4.30;;;5.80;99.90;;;;;;5084686;27;20039;-74
2023/12/23 01:24:28;;;;;;;21.27;3.80;;;5.80;99.90;;;;;;5081084;28;20117;-74
2023/12/23 01:26:55;;;;;;;15.85;3.13;;;5.90;99.90;;;;;;5084590;27;20043;-74
2023/12/23 01:29:21;;;;;;;16.02;3.33;;;5.90;99.90;;;;;;5084218;27;20047;-74
2023/12/23 01:31:47;;;;;;;15.85;3.30;;;5.90;99.90;;;;;;5063910;28;20093;-74
2023/12/23 01:34:13;;;;;;;16.67;3.55;;;5.90;99.90;;;;;;5083697;28;20046;-74
2023/12/23 01:36:38;;;;;;;17.60;2.85;;;6.00;99.90;;;;;;5083721;28;20056;-74
2023/12/23 01:39:04;;;;;;;16.13;3.22;;;6.00;99.90;;;;;;5082939;28;20043;-74
2023/12/23 01:41:30;;;;;;;16.50;2.75;;;6.10;99.90;;;;;;5061224;28;20642;-74
2023/12/23 01:43:56;;;;;;;16.58;2.92;;;6.10;99.90;;;;;;5089565;27;20092;-74
2023/12/23 01:46:21;;;;;;;12.40;3.15;;;6.10;99.90;;;;;;5068638;28;20634;-74
2023/12/23 01:48:48;;;;;;;13.13;3.05;;;6.10;99.90;;;;;;5065702;28;20035;-73
2023/12/23 01:51:15;;;;;;;11.68;2.58;;;6.10;99.90;;;;;;5083691;27;20054;-74
2023/12/23 01:53:42;;;;;;;14.18;2.85;;;6.10;99.90;;;;;;5083188;27;20082;-73
2023/12/23 01:56:11;;;;;;;14.20;2.88;;;6.10;99.90;;;;;;5088292;27;20447;-73
2023/12/23 01:58:37;;;;;;;16.13;2.80;;;6.10;99.90;;;;;;5085491;28;20044;-73
2023/12/23 02:01:03;;;;;;;14.93;2.60;;;6.10;99.90;;;;;;5083309;27;20437;-73
2023/12/23 02:03:31;;;;;;;13.48;2.33;;;6.10;99.90;;;;;;5078433;28;20075;-73
2023/12/23 02:05:57;;;;;;;13.00;2.45;;;6.10;99.90;;;;;;5083889;28;20123;-73
2023/12/23 02:08:28;;;;;;;16.40;3.13;;;6.00;99.90;;;;;;5067500;28;20123;-73
2023/12/23 02:11:06;;;;;;;15.00;2.75;;;6.00;99.90;;;;;;5064829;28;20040;-73
2023/12/23 02:14:00;;;;;;;11.50;2.45;;;6.10;99.90;;;;;;5083269;28;20523;-73
2023/12/23 02:16:27;;;;;;;14.55;2.47;;;6.00;99.90;;;;;;5062886;28;20043;-77
2023/12/23 02:18:53;;;;;;;13.65;2.47;;;6.00;99.90;;;;;;5087281;28;20097;-77
2023/12/23 02:21:19;;;;;;;12.43;2.38;;;6.00;99.90;;;;;;5073691;28;20506;-77
2023/12/23 02:23:44;;;;;;;15.90;3.42;;;6.00;99.90;;;;;;5076761;28;20044;-75
2023/12/23 02:26:13;;;;;;;13.95;2.90;;;6.00;99.90;;;;;;5085381;28;20077;-74
2023/12/23 02:28:41;;;;;;;12.50;3.05;;;6.00;99.90;;;;;;5084068;28;20047;-74
2023/12/23 02:31:08;;;;;;;14.18;2.70;;;6.00;99.90;;;;;;5078544;28;20474;-74
2023/12/23 02:33:34;;;;;;;14.77;3.05;;;5.90;99.90;;;;;;5094523;28;20039;-74
2023/12/23 02:36:00;;;;;;;14.70;2.50;;;6.00;99.90;;;;;;5104509;28;20050;-74
2023/12/23 02:38:26;;;;;;;13.60;2.45;;;6.00;99.90;;;;;;5081433;28;20051;-74
2023/12/23 02:40:51;;;;;;;11.95;2.45;;;5.90;99.90;;;;;;5083051;28;20040;-74
2023/12/23 02:43:17;;;;;;;11.43;2.67;;;5.90;99.90;;;;;;5068535;28;20109;-77
2023/12/23 02:45:43;;;;;;;11.45;2.10;;;6.00;99.90;;;;;;5065314;28;20054;-78
2023/12/23 02:48:09;;;;;;;14.95;2.55;;;6.00;99.90;;;;;;5093818;28;20047;-77
2023/12/23 02:50:34;;;;;;;7.90;1.98;;;5.90;99.90;;;;;;5065018;28;20043;-78
2023/12/23 02:53:00;;;;;;;15.63;2.38;;;5.90;99.90;;;;;;5085581;28;20138;-78
2023/12/23 02:55:26;;;;;;;12.93;2.40;;;5.90;99.90;;;;;;5061684;28;20044;-77
2023/12/23 02:57:52;;;;;;;14.82;2.72;;;5.80;99.90;;;;;;5065511;28;20127;-76
2023/12/23 03:00:17;;;;;;;18.23;2.55;;;5.80;99.90;;;;;;5078250;28;20086;-75
2023/12/23 03:02:43;;;;;;;14.85;2.90;;;5.80;99.90;;;;;;5073517;28;20490;-76
2023/12/23 03:05:09;;;;;;;17.85;2.25;;;5.70;99.90;;;;;;5077857;28;20044;-75
2023/12/23 03:07:35;;;;;;;20.00;3.45;;;5.70;99.90;;;;;;5073487;28;20036;-75
2023/12/23 03:10:01;;;;;;;19.65;2.95;;;5.70;99.90;;;;;;5064465;28;20069;-75
2023/12/23 03:12:26;;;;;;;29.52;3.40;;;5.70;99.90;;;;;;5075061;28;20139;-75
2023/12/23 03:14:52;;;;;;;17.75;2.85;;;5.70;99.90;;;;;;5065912;28;20029;-75
2023/12/23 03:17:18;;;;;;;19.70;3.60;;;5.70;99.90;;;;;;5055413;28;20173;-75
2023/12/23 03:19:43;;;;;;;16.83;2.53;;;5.70;99.90;;;;;;5068574;28;20044;-75
2023/12/23 03:22:09;;;;;;;17.08;2.40;;;5.70;99.90;;;;;;5069594;28;20044;-76
2023/12/23 03:24:35;;;;;;;23.10;3.40;;;5.70;99.90;;;;;;5071827;28;20406;-76
2023/12/23 03:27:03;;;;;;;17.85;2.63;;;5.70;99.90;;;;;;5069077;28;20044;-76
2023/12/23 03:29:29;;;;;;;20.95;3.13;;;5.70;99.90;;;;;;5074355;28;20523;-76
2023/12/23 03:31:55;;;;;;;15.18;2.10;;;5.70;99.90;;;;;;5080745;28;20493;-76
2023/12/23 03:34:21;;;;;;;16.70;2.72;;;5.70;99.90;;;;;;5084601;28;20051;-76
2023/12/23 03:36:47;;;;;;;17.27;2.33;;;5.70;99.90;;;;;;5085377;28;20040;-76
2023/12/23 03:39:13;;;;;;;20.25;2.65;;;5.70;99.90;;;;;;5068581;28;20119;-76
2023/12/23 03:41:38;;;;;;;12.93;1.90;;;5.70;99.90;;;;;;5069068;28;20189;-76
2023/12/23 03:44:04;;;;;;;16.65;2.30;;;5.70;99.90;;;;;;5082482;28;20122;-76
2023/12/23 03:46:30;;;;;;;13.27;2.10;;;5.70;99.90;;;;;;5072322;28;20028;-74
2023/12/23 03:48:56;;;;;;;15.38;2.22;;;5.70;99.90;;;;;;5081464;28;21196;-72
2023/12/23 03:51:23;;;;;;;13.18;2.20;;;5.70;99.90;;;;;;5058002;28;20048;-72
2023/12/23 03:53:49;;;;;;;16.42;2.22;;;5.70;99.90;;;;;;5056791;28;20044;-73
2023/12/23 03:56:15;;;;;;;19.83;2.63;;;5.70;99.90;;;;;;5071151;28;20040;-73
2023/12/23 03:58:41;;;;;;;13.32;2.13;;;5.60;99.90;;;;;;5072275;28;20052;-74
2023/12/23 04:01:10;;;;;;;16.85;2.17;;;5.70;99.90;;;;;;5076258;28;20809;-73
2023/12/23 04:03:36;;;;;;;15.60;2.45;;;5.70;99.90;;;;;;5060546;28;20057;-73
2023/12/23 04:06:02;;;;;;;13.43;2.10;;;5.70;99.90;;;;;;5071434;28;20129;-74
2023/12/23 04:08:28;;;;;;;15.98;2.22;;;5.70;99.90;;;;;;5073424;28;20040;-73
2023/12/23 04:10:53;;;;;;;11.20;2.17;;;5.70;99.90;;;;;;5059198;28;20036;-75
2023/12/23 04:13:22;;;;;;;21.02;2.10;;;5.70;99.90;;;;;;5086027;28;20059;-75
2023/12/23 04:15:48;;;;;;;17.67;2.65;;;5.70;99.90;;;;;;5069778;28;20528;-75
2023/12/23 04:18:14;;;;;;;14.25;1.73;;;5.70;99.90;;;;;;5066078;28;20074;-75
2023/12/23 04:20:39;;;;;;;15.45;2.38;;;5.70;99.90;;;;;;5058232;28;20091;-75
2023/12/23 04:23:05;;;;;;;13.93;2.03;;;5.70;99.90;;;;;;5064966;28;20040;-73
2023/12/23 04:25:31;;;;;;;12.50;2.20;;;5.70;99.90;;;;;;5071012;28;20028;-73
2023/12/23 04:27:57;;;;;;;4.90;1.30;;;5.70;99.90;;;;;;5084250;28;20591;-73
2023/12/23 04:30:23;;;;;;;10.50;1.75;;;5.70;99.90;;;;;;5057851;28;20047;-73
2023/12/23 04:32:48;;;;;;;10.02;1.70;;;5.70;99.90;;;;;;5074345;28;20114;-73
2023/12/23 04:35:14;;;;;;;7.10;1.67;;;5.80;99.90;;;;;;5075219;28;20486;-74
2023/12/23 04:37:41;;;;;;;13.50;1.67;;;5.70;99.90;;;;;;5075639;28;20052;-74
2023/12/23 04:40:08;;;;;;;8.88;1.70;;;5.70;99.90;;;;;;5054243;28;20063;-74
2023/12/23 04:42:34;;;;;;;8.43;1.40;;;5.70;99.90;;;;;;5063603;28;20678;-74
2023/12/23 04:44:59;;;;;;;7.75;1.50;;;5.70;99.90;;;;;;5080977;28;20035;-74
2023/12/23 04:47:25;;;;;;;8.43;2.13;;;5.80;99.90;;;;;;5067840;28;20058;-74
2023/12/23 04:49:51;;;;;;;8.48;1.75;;;5.80;99.90;;;;;;5086844;28;20036;-75
2023/12/23 04:52:17;;;;;;;10.68;1.95;;;5.70;99.90;;;;;;5068196;28;20062;-75
2023/12/23 04:54:43;;;;;;;5.82;1.33;;;5.70;99.90;;;;;;5085981;28;20579;-75
2023/12/23 04:57:09;;;;;;;6.07;1.58;;;5.80;99.90;;;;;;5070451;28;20135;-75
2023/12/23 04:59:35;;;;;;;5.75;1.40;;;5.70;99.90;;;;;;5079684;28;20054;-75
2023/12/23 05:02:00;;;;;;;5.38;1.88;;;5.80;99.90;;;;;;5057474;28;20058;-77
2023/12/23 05:04:26;;;;;;;5.80;2.13;;;5.80;99.90;;;;;;5053406;28;20253;-77
2023/12/23 05:06:52;;;;;;;6.20;2.05;;;5.70;99.90;;;;;;5077873;28;20040;-77
2023/12/23 05:09:18;;;;;;;9.90;2.30;;;5.80;99.90;;;;;;5052809;28;20032;-76
2023/12/23 05:11:43;;;;;;;4.60;1.70;;;5.70;99.90;;;;;;5058331;28;20436;-74
2023/12/23 05:14:10;;;;;;;3.05;1.42;;;5.80;99.90;;;;;;5083105;28;20074;-75
2023/12/23 05:16:36;;;;;;;7.65;2.30;;;5.70;99.90;;;;;;5068974;28;20094;-74
2023/12/23 05:19:01;;;;;;;5.28;2.28;;;5.80;99.90;;;;;;5070607;28;20040;-74
2023/12/23 05:21:27;;;;;;;3.63;1.70;;;5.80;99.90;;;;;;5062957;28;20044;-74
2023/12/23 05:23:53;;;;;;;4.38;1.70;;;5.80;99.90;;;;;;5071118;28;20522;-75
2023/12/23 05:26:20;;;;;;;7.00;2.55;;;5.80;99.90;;;;;;5051621;28;20086;-75
2023/12/23 05:28:46;;;;;;;4.15;2.03;;;5.70;99.90;;;;;;5070717;28;20052;-75
2023/12/23 05:31:11;;;;;;;3.72;1.98;;;5.80;99.90;;;;;;5060060;28;20036;-75
2023/12/23 05:33:37;;;;;;;4.68;1.80;;;5.80;99.90;;;;;;5074174;28;20043;-75
2023/12/23 05:36:03;;;;;;;3.03;1.50;;;5.80;99.90;;;;;;5073444;28;20466;-75
2023/12/23 05:38:29;;;;;;;3.67;1.50;;;5.80;99.90;;;;;;5061516;28;20036;-75
2023/12/23 05:40:56;;;;;;;3.92;1.55;;;5.80;99.90;;;;;;5082659;28;20051;-75
2023/12/23 05:43:22;;;;;;;2.25;1.40;;;5.80;99.90;;;;;;5052286;28;20044;-75
2023/12/23 05:45:48;;;;;;;2.92;1.52;;;5.80;99.90;;;;;;5080156;28;20052;-75
2023/12/23 05:48:14;;;;;;;2.92;1.40;;;5.80;99.90;;;;;;5078715;28;20046;-76
2023/12/23 05:50:40;;;;;;;3.70;1.40;;;5.80;99.90;;;;;;5067199;28;20063;-76
2023/12/23 05:53:05;;;;;;;4.13;1.58;;;5.80;99.90;;;;;;5058602;28;20076;-76
2023/12/23 05:55:31;;;;;;;2.60;1.50;;;5.80;99.90;;;;;;5073945;28;20052;-76
2023/12/23 05:57:57;;;;;;;3.33;1.58;;;5.80;99.90;;;;;;5061829;28;20059;-75
2023/12/23 06:00:23;;;;;;;2.80;1.40;;;5.80;99.90;;;;;;5069757;28;20545;-75
2023/12/23 06:02:49;;;;;;;3.53;1.75;;;5.80;99.90;;;;;;5070750;28;20111;-75
2023/12/23 06:05:14;;;;;;;3.13;1.33;;;5.90;99.90;;;;;;5080414;28;20046;-74
2023/12/23 06:07:40;;;;;;;3.65;1.65;;;5.90;99.90;;;;;;5064285;28;20573;-74
2023/12/23 06:10:09;;;;;;;6.57;2.22;;;6.00;99.90;;;;;;5065163;28;20040;-74
2023/12/23 06:12:35;;;;;;;4.43;1.95;;;6.10;99.90;;;;;;5070886;28;20052;-74
2023/12/23 06:15:00;;;;;;;5.57;2.42;;;6.20;99.90;;;;;;5068656;28;20394;-75
2023/12/23 06:17:26;;;;;;;5.72;2.22;;;6.20;99.90;;;;;;5073989;28;20520;-75
2023/12/23 06:19:52;;;;;;;10.45;3.40;;;6.30;99.90;;;;;;5061989;28;20494;-77
2023/12/23 06:22:18;;;;;;;10.95;4.00;;;6.40;99.90;;;;;;5076457;28;20044;-75
2023/12/23 06:24:44;;;;;;;7.00;2.28;;;6.60;99.90;;;;;;5070304;28;20071;-75
2023/12/23 06:27:10;;;;;;;9.07;2.72;;;6.70;99.90;;;;;;5078175;28;20045;-75
2023/12/23 06:29:35;;;;;;;22.35;5.03;;;6.80;99.90;;;;;;5067950;28;20401;-75
2023/12/23 06:32:02;;;;;;;17.67;5.03;;;6.90;99.90;;;;;;5081041;28;20047;-75
2023/12/23 06:34:28;;;;;;;16.77;4.93;;;7.00;99.90;;;;;;5069343;28;20051;-75
2023/12/23 06:36:53;;;;;;;13.85;4.15;;;7.10;99.90;;;;;;5077560;28;20032;-75
2023/12/23 06:39:19;;;;;;;11.73;3.83;;;7.30;99.90;;;;;;5073086;28;20079;-75
2023/12/23 06:41:45;;;;;;;12.70;3.80;;;7.30;99.90;;;;;;5055476;28;21105;-75
2023/12/23 06:44:11;;;;;;;12.68;3.90;;;7.30;99.90;;;;;;5056467;28;20052;-75
2023/12/23 06:46:37;;;;;;;13.80;4.20;;;7.30;99.90;;;;;;5069012;28;20056;-75
2023/12/23 06:49:03;;;;;;;21.88;6.78;;;7.40;99.90;;;;;;5078046;28;20047;-74
2023/12/23 06:51:29;;;;;;;21.08;6.78;;;7.30;99.90;;;;;;5055838;28;20548;-74
2023/12/23 06:53:56;;;;;;;20.90;7.28;;;7.50;99.90;;;;;;5072352;28;20035;-74
2023/12/23 06:56:22;;;;;;;16.40;4.28;;;7.50;99.90;;;;;;5072123;28;20386;-74
2023/12/23 06:58:48;;;;;;;15.45;4.75;;;7.60;99.90;;;;;;5061672;28;20410;-74
2023/12/23 07:01:14;;;;;;;15.02;4.40;;;7.70;99.90;;;;;;5088354;28;20047;-74
2023/12/23 07:03:43;;;;;;;9.27;3.25;;;7.70;99.90;;;;;;5080814;28;20051;-74
2023/12/23 07:06:12;;;;;;;10.35;2.80;;;7.70;99.90;;;;;;5086281;28;20044;-75
2023/12/23 07:08:39;;;;;;;7.87;2.37;;;7.60;99.90;;;;;;5068823;28;20054;-75
2023/12/23 07:11:06;;;;;;;4.43;1.75;;;7.50;99.90;;;;;;5071931;28;20033;-74
2023/12/23 07:13:32;;;;;;;3.75;1.73;;;7.30;99.90;;;;;;5060550;28;20131;-75
2023/12/23 07:15:57;;;;;;;3.35;1.40;;;7.00;99.90;;;;;;5072827;28;20609;-75
2023/12/23 07:18:23;;;;;;;2.40;1.20;;;6.80;99.90;;;;;;5060939;28;20044;-75
2023/12/23 07:20:49;;;;;;;9.40;2.67;;;6.80;99.90;;;;;;5082342;28;20039;-74
2023/12/23 07:23:15;;;;;;;8.00;2.10;;;6.60;99.90;;;;;;5075008;28;20036;-77
2023/12/23 07:25:41;;;;;;;10.48;2.50;;;6.60;99.90;;;;;;5057668;28;20052;-75
2023/12/23 07:28:06;;;;;;;5.78;1.95;;;6.70;99.90;;;;;;5071441;28;20052;-74
2023/12/23 07:30:32;;;;;;;4.90;1.70;;;6.70;99.90;;;;;;5071842;28;20047;-75
2023/12/23 07:32:58;;;;;;;3.83;1.13;;;6.70;99.90;;;;;;5051477;27;20390;-75
2023/12/23 07:35:24;;;;;;;3.60;1.40;;;6.60;99.90;;;;;;5072849;27;20047;-74
2023/12/23 07:37:53;;;;;;;2.13;1.10;;;6.60;99.90;;;;;;5060736;27;20047;-76
2023/12/23 07:40:19;;;;;;;2.08;0.95;;;6.50;99.90;;;;;;5055620;27;20047;-76
2023/12/23 07:42:44;;;;;;;2.25;0.98;;;6.40;99.90;;;;;;5058037;27;20047;-75
2023/12/23 07:45:10;;;;;;;4.82;1.48;;;6.20;99.90;;;;;;5043023;27;20048;-75
2023/12/23 07:47:36;;;;;;;2.03;0.80;;;6.10;99.90;;;;;;5045275;28;20409;-75
2023/12/23 07:50:03;;;;;;;1.95;0.70;;;6.10;99.90;;;;;;5060821;28;20035;-76
2023/12/23 07:52:29;;;;;;;2.08;0.80;;;6.10;99.90;;;;;;5075681;28;20052;-75
2023/12/23 07:54:56;;;;;;;1.88;0.82;;;6.00;99.90;;;;;;5074808;28;20129;-75
2023/12/23 07:57:24;;;;;;;1.35;0.55;;;5.90;99.90;;;;;;5078177;28;20067;-75
2023/12/23 07:59:50;;;;;;;3.22;1.20;;;5.90;99.90;;;;;;5072581;28;20098;-75
2023/12/23 08:02:16;;;;;;;2.83;1.08;;;5.80;99.90;;;;;;5053085;28;20533;-75
2023/12/23 08:04:42;;;;;;;3.25;1.05;;;5.70;99.90;;;;;;5070235;28;20113;-75
2023/12/23 08:07:07;;;;;;;1.90;0.95;;;5.60;99.90;;;;;;5065488;27;20047;-75
2023/12/23 08:09:34;;;;;;;2.67;1.08;;;5.60;99.90;;;;;;5086234;28;20055;-75
2023/12/23 08:12:00;;;;;;;1.95;1.10;;;5.50;99.90;;;;;;5070137;28;20463;-75
2023/12/23 08:14:26;;;;;;;1.58;0.85;;;5.50;99.90;;;;;;5084205;28;20127;-75
2023/12/23 08:16:52;;;;;;;1.52;0.82;;;5.50;99.90;;;;;;5099047;27;20031;-75
2023/12/23 08:19:18;;;;;;;1.80;0.98;;;5.40;99.90;;;;;;5081185;28;20101;-75
2023/12/23 08:21:43;;;;;;;2.00;1.00;;;5.40;99.90;;;;;;5081927;28;20055;-75
2023/12/23 08:24:09;;;;;;;2.08;0.93;;;5.40;99.90;;;;;;5075646;27;20048;-75
2023/12/23 08:26:35;;;;;;;1.80;0.60;;;5.30;99.90;;;;;;5088853;28;20398;-75
2023/12/23 08:29:00;;;;;;;0.95;0.57;;;5.30;99.90;;;;;;5069045;28;20394;-75
2023/12/23 08:31:26;;;;;;;2.33;0.73;;;5.20;99.90;;;;;;5068575;28;20451;-76
2023/12/23 08:33:52;;;;;;;1.48;0.50;;;5.20;99.90;;;;;;5093010;27;20092;-75
2023/12/23 08:36:18;;;;;;;1.70;1.00;;;5.10;99.90;;;;;;5068643;27;20052;-75
2023/12/23 08:38:44;;;;;;;1.35;0.70;;;5.10;99.90;;;;;;5085869;27;20027;-75
2023/12/23 08:41:09;;;;;;;1.25;0.82;;;5.10;99.90;;;;;;5091788;27;20035;-75
2023/12/23 08:43:35;;;;;;;1.95;1.00;;;5.10;99.90;;;;;;5094952;27;20039;-76
2023/12/23 08:46:01;;;;;;;2.55;0.82;;;5.00;99.90;;;;;;5089198;27;20050;-76
2023/12/23 08:48:27;;;;;;;2.33;0.90;;;5.00;99.90;;;;;;5084955;28;20099;-76
2023/12/23 08:50:53;;;;;;;1.83;0.73;;;5.00;99.90;;;;;;5105435;27;20047;-75
2023/12/23 08:53:19;;;;;;;1.70;0.50;;;5.00;99.90;;;;;;5069644;28;20447;-76
2023/12/23 08:55:45;;;;;;;1.13;0.60;;;5.00;99.90;;;;;;5092928;27;20201;-75
2023/12/23 08:58:15;;;;;;;2.58;0.95;;;5.00;99.90;;;;;;5074306;27;20421;-75
2023/12/23 09:00:40;;;;;;;2.10;1.20;;;5.00;99.90;;;;;;5075148;27;20413;-75
2023/12/23 09:03:06;;;;;;;2.38;1.15;;;5.00;99.90;;;;;;5075239;28;20039;-75
2023/12/23 09:05:32;;;;;;;2.22;1.27;;;5.10;99.90;;;;;;5078673;28;20545;-75
2023/12/23 09:07:58;;;;;;;3.10;1.25;;;5.10;99.90;;;;;;5063809;27;20763;-75
2023/12/23 09:10:24;;;;;;;2.90;1.35;;;5.10;99.90;;;;;;5080475;28;20036;-75
2023/12/23 09:12:50;;;;;;;2.38;1.33;;;5.10;99.90;;;;;;5070673;28;20149;-75
2023/12/23 09:15:15;;;;;;;2.72;1.25;;;5.10;99.90;;;;;;5081726;28;21218;-75
2023/12/23 09:17:41;;;;;;;4.43;1.67;;;5.20;99.90;;;;;;5072177;27;20216;-76
2023/12/23 09:20:10;;;;;;;2.58;1.40;;;5.20;99.90;;;;;;5090273;27;20494;-75
2023/12/23 09:22:36;;;;;;;2.70;1.50;;;5.20;99.90;;;;;;5090870;27;20046;-75
2023/12/23 09:25:01;;;;;;;2.92;1.70;;;5.20;99.90;;;;;;5072552;27;20040;-75
2023/12/23 09:27:28;;;;;;;3.13;1.48;;;5.20;99.90;;;;;;5096174;27;20097;-75
2023/12/23 09:29:56;;;;;;;2.47;1.35;;;5.20;99.90;;;;;;5085110;27;20506;-75
2023/12/23 09:32:21;;;;;;;3.60;1.65;;;5.20;99.90;;;;;;5069910;28;20035;-75
2023/12/23 09:34:49;;;;;;;2.72;1.27;;;5.20;99.90;;;;;;5078988;27;20757;-75
2023/12/23 09:37:15;;;;;;;3.95;1.95;;;5.30;99.90;;;;;;5086075;28;20047;-76
2023/12/23 09:39:41;;;;;;;5.32;1.90;;;5.20;99.90;;;;;;5093994;27;20505;-75
2023/12/23 09:42:07;;;;;;;5.63;2.10;;;5.30;99.90;;;;;;5089295;28;20052;-75
2023/12/23 09:44:35;;;;;;;3.03;1.50;;;5.30;99.90;;;;;;5067976;27;20066;-75
2023/12/23 09:47:01;;;;;;;3.15;2.08;;;5.40;99.90;;;;;;5076723;27;20123;-75
2023/12/23 09:49:28;;;;;;;4.80;3.00;;;5.40;99.90;;;;;;5089956;28;20130;-75
2023/12/23 09:51:56;;;;;;;2.50;1.85;;;5.50;99.90;;;;;;5070309;28;20042;-75
2023/12/23 09:54:23;;;;;;;5.85;2.30;;;5.50;99.90;;;;;;5086212;28;20472;-76
2023/12/23 09:56:50;;;;;;;2.40;1.73;;;5.40;99.90;;;;;;5085940;28;20494;-76
2023/12/23 09:59:16;;;;;;;2.88;2.00;;;5.50;99.90;;;;;;5074921;28;20173;-75
2023/12/23 10:01:42;;;;;;;4.38;2.40;;;5.50;99.90;;;;;;5070473;27;20134;-76
2023/12/23 10:04:08;;;;;;;3.80;2.17;;;5.50;99.90;;;;;;5088392;27;20031;-76
2023/12/23 10:06:33;;;;;;;5.13;3.22;;;5.50;99.90;;;;;;5094196;28;20131;-76
2023/12/23 10:08:59;;;;;;;6.32;3.50;;;5.50;99.90;;;;;;5083133;28;20055;-76
2023/12/23 10:11:27;;;;;;;5.55;3.17;;;5.50;99.90;;;;;;5058196;28;20144;-76
2023/12/23 10:13:55;;;;;;;3.22;2.33;;;5.60;99.90;;;;;;5070676;28;20088;-76
2023/12/23 10:16:21;;;;;;;5.00;3.17;;;5.60;99.90;;;;;;5075968;28;20047;-76
2023/12/23 10:18:47;;;;;;;10.38;3.75;;;5.60;99.90;;;;;;5078964;28;20035;-75
2023/12/23 10:21:13;;;;;;;8.07;3.72;;;5.60;99.90;;;;;;5083310;28;20047;-76
2023/12/23 10:23:38;;;;;;;7.13;3.10;;;5.70;99.90;;;;;;5071103;28;20043;-75
2023/12/23 10:26:04;;;;;;;8.70;3.58;;;5.70;99.90;;;;;;5064461;28;20064;-75
2023/12/23 10:28:30;;;;;;;6.55;3.35;;;5.80;99.90;;;;;;5075568;28;20563;-75
2023/12/23 10:31:03;;;;;;;14.27;4.03;;;5.80;99.90;;;;;;5079177;28;20046;-75
2023/12/23 10:33:36;;;;;;;6.93;3.10;;;5.90;99.90;;;;;;5066606;28;20043;-75
2023/12/23 10:36:05;;;;;;;7.30;3.40;;;5.90;99.90;;;;;;5095455;28;20393;-75
2023/12/23 10:38:32;;;;;;;11.48;3.60;;;6.00;99.90;;;;;;5070211;28;20075;-75
2023/12/23 10:41:37;;;;;;;12.60;3.83;;;6.00;99.90;;;;;;5073618;28;20051;-76
2023/12/23 10:44:05;;;;;;;20.02;5.07;;;6.10;99.90;;;;;;5041721;28;20513;-75
2023/12/23 10:46:33;;;;;;;19.02;5.28;;;6.20;99.90;;;;;;5083914;28;20589;-75
2023/12/23 10:48:59;;;;;;;26.67;6.70;;;6.40;99.90;;;;;;5077413;28;20040;-75
2023/12/23 10:51:26;;;;;;;23.58;7.25;;;6.50;99.90;;;;;;5059369;28;20513;-75
2023/12/23 10:53:53;;;;;;;38.83;10.15;;;6.80;99.90;;;;;;5082847;28;20040;-75
2023/12/23 10:56:20;;;;;;;34.47;8.25;;;6.90;99.90;;;;;;5075644;28;20071;-75
2023/12/23 10:58:45;;;;;;;40.10;7.78;;;7.10;99.90;;;;;;5081627;28;20810;-76
2023/12/23 11:01:13;;;;;;;50.33;14.15;;;7.20;99.90;;;;;;5073433;28;20131;-77
2023/12/23 11:03:40;;;;;;;44.83;12.15;;;7.40;99.90;;;;;;5081277;28;20409;-77
2023/12/23 11:06:07;;;;;;;37.45;7.35;;;7.50;99.90;;;;;;5072090;28;20052;-76
2023/12/23 11:08:34;;;;;;;32.92;7.55;;;7.60;99.90;;;;;;5091505;27;20047;-77
2023/12/23 11:11:00;;;;;;;31.83;7.07;;;7.80;99.90;;;;;;5066905;28;20130;-77
2023/12/23 11:13:26;;;;;;;32.05;6.47;;;8.00;99.90;;;;;;5090489;27;20137;-77
2023/12/23 11:15:55;;;;;;;28.73;6.28;;;8.20;99.90;;;;;;5077335;28;20040;-77
2023/12/23 11:18:24;;;;;;;37.53;8.57;;;8.30;99.90;;;;;;5080629;28;20050;-77
2023/12/23 11:20:50;;;;;;;29.55;6.97;;;8.40;99.90;;;;;;5079933;28;20421;-77
2023/12/23 11:23:28;;;;;;;40.03;7.93;;;8.40;99.90;;;;;;5073238;28;20035;-77
2023/12/23 11:25:55;;;;;;;24.13;6.03;;;8.50;99.90;;;;;;5074386;28;20044;-77
2023/12/23 11:28:25;;;;;;;22.85;5.32;;;8.60;99.90;;;;;;5083594;28;20484;-77
2023/12/23 11:31:01;;;;;;;27.75;6.65;;;8.70;99.90;;;;;;5085404;28;20047;-77
2023/12/23 11:33:29;;;;;;;30.35;5.88;;;8.70;99.90;;;;;;5088643;27;20533;-77
2023/12/23 11:35:59;;;;;;;30.98;6.70;;;8.80;99.90;;;;;;5067898;27;20497;-77
2023/12/23 11:38:50;;;;;;;21.65;5.43;;;8.80;99.90;;;;;;5084079;28;20473;-77
2023/12/23 11:41:17;;;;;;;27.10;4.93;;;8.90;99.90;;;;;;5071089;28;20105;-77
2023/12/23 11:43:45;;;;;;;26.90;5.50;;;8.90;99.90;;;;;;5064432;28;20540;-78
2023/12/23 11:46:11;;;;;;;22.13;5.55;;;8.90;99.90;;;;;;5079102;28;20123;-78
2023/12/23 11:48:37;;;;;;;22.73;5.13;;;8.90;99.90;;;;;;5068938;28;20447;-79
2023/12/23 11:51:04;;;;;;;30.30;6.57;;;9.00;99.90;;;;;;5089018;28;20119;-78
2023/12/23 11:53:29;;;;;;;23.83;5.18;;;9.00;99.90;;;;;;5084087;27;20117;-77
2023/12/23 11:55:56;;;;;;;23.60;5.40;;;9.00;99.90;;;;;;5081181;27;20469;-77
2023/12/23 11:58:28;;;;;;;27.65;5.93;;;9.00;99.90;;;;;;5087163;27;20050;-77
2023/12/23 12:00:54;;;;;;;26.77;6.85;;;9.10;99.90;;;;;;5082363;28;20036;-77
2023/12/23 12:03:22;;;;;;;23.38;5.22;;;9.10;99.90;;;;;;5079242;28;20046;-77
2023/12/23 12:05:53;;;;;;;28.83;5.85;;;9.10;99.90;;;;;;5065687;27;20044;-76
2023/12/23 12:08:20;;;;;;;22.08;5.00;;;9.10;99.90;;;;;;5081211;28;20077;-76
2023/12/23 12:10:46;;;;;;;20.95;5.00;;;9.10;99.90;;;;;;5081131;28;20071;-77
2023/12/23 12:13:12;;;;;;;21.00;4.55;;;9.10;99.90;;;;;;5085742;28;20047;-78
2023/12/23 12:15:40;;;;;;;21.45;4.53;;;9.20;99.90;;;;;;5084994;28;20043;-77
2023/12/23 12:18:06;;;;;;;25.00;5.72;;;9.20;99.90;;;;;;5067109;27;20053;-78
2023/12/23 12:20:31;;;;;;;20.52;4.82;;;9.30;99.90;;;;;;5086668;27;20047;-77
2023/12/23 12:22:57;;;;;;;19.35;4.32;;;9.30;99.90;;;;;;5091916;27;20092;-78
2023/12/23 12:25:25;;;;;;;19.40;4.88;;;9.30;99.90;;;;;;5084052;28;20039;-78
2023/12/23 12:27:51;;;;;;;24.55;5.13;;;9.30;99.90;;;;;;5066939;28;20405;-77
2023/12/23 12:30:17;;;;;;;21.38;4.65;;;9.30;99.90;;;;;;5078262;28;20702;-78
2023/12/23 12:32:46;;;;;;;21.83;4.30;;;9.30;99.90;;;;;;5067582;28;20051;-78
2023/12/23 12:35:13;;;;;;;22.42;4.30;;;9.40;99.90;;;;;;5080903;28;20075;-78
2023/12/23 12:37:40;;;;;;;19.92;4.03;;;9.30;99.90;;;;;;5086444;28;20055;-78
2023/12/23 12:40:10;;;;;;;19.83;3.95;;;9.40;99.90;;;;;;5069065;28;20473;-78
2023/12/23 12:42:36;;;;;;;23.70;4.85;;;9.40;99.90;;;;;;5067394;28;20047;-75
2023/12/23 12:45:02;;;;;;;17.95;4.03;;;9.40;99.90;;;;;;5083663;27;20040;-76
2023/12/23 12:47:29;;;;;;;24.73;5.15;;;9.40;99.90;;;;;;5066132;27;20063;-75